createdAt,value
2023-03-23T15:58:39.900Z,1.38
2023-03-23T16:01:42.603Z,0.73
2023-03-23T16:04:47.577Z,0.90
2023-03-23T16:07:50.179Z,1.10
2023-03-23T16:10:51.656Z,1.60
2023-03-23T16:13:52.939Z,0.93
2023-03-23T16:16:54.473Z,0.93
2023-03-23T16:19:55.969Z,1.13
2023-03-23T16:22:57.490Z,1.63
2023-03-23T16:25:58.828Z,0.98
2023-03-23T16:29:10.224Z,1.45
2023-03-23T16:32:18.934Z,0.80
2023-03-23T16:35:20.596Z,1.00
2023-03-23T16:38:21.925Z,1.90
2023-03-23T16:41:23.214Z,1.27
2023-03-23T16:44:24.534Z,1.08
2023-03-23T16:47:25.844Z,1.17
2023-03-23T16:50:28.057Z,1.27
2023-03-23T16:53:29.429Z,1.63
2023-03-23T16:56:30.890Z,1.08
2023-03-23T16:59:32.230Z,1.10
2023-03-23T17:02:33.594Z,1.10
2023-03-23T17:05:35.787Z,1.50
2023-03-23T17:08:37.103Z,1.30
2023-03-23T17:11:38.386Z,1.17
2023-03-23T17:14:39.674Z,1.23
2023-03-23T17:17:40.955Z,2.00
2023-03-23T17:20:42.540Z,1.85
2023-03-23T17:23:43.854Z,2.80
2023-03-23T17:26:45.364Z,1.23
2023-03-23T17:29:46.957Z,1.63
2023-03-23T17:32:48.775Z,1.52
2023-03-23T17:35:51.915Z,1.80
2023-03-23T17:38:53.497Z,1.42
2023-03-23T17:41:54.777Z,1.88
2023-03-23T17:44:56.075Z,1.83
2023-03-23T17:47:57.417Z,2.33
2023-03-23T17:50:59.065Z,2.00
2023-03-23T17:54:00.937Z,1.58
2023-03-23T17:57:03.832Z,2.40
2023-03-23T18:00:07.821Z,1.42
2023-03-23T18:03:09.207Z,1.85
2023-03-23T18:06:10.567Z,1.48
2023-03-23T18:09:11.897Z,1.83
2023-03-23T18:12:13.148Z,2.53
2023-03-23T18:15:14.458Z,1.38
2023-03-23T18:18:15.946Z,1.35
2023-03-23T18:21:17.378Z,1.65
2023-03-23T18:24:18.682Z,1.75
2023-03-23T18:27:19.942Z,1.88
2023-03-23T18:30:22.186Z,2.13
2023-03-23T18:36:27.238Z,5.25
2023-03-23T18:39:28.783Z,10.63
2023-03-23T18:42:30.230Z,3.92
2023-03-23T18:45:33.124Z,2.08
2023-03-23T18:48:35.637Z,2.10
2023-03-23T18:51:37.837Z,2.22
2023-03-23T18:54:40.364Z,2.03
2023-03-23T18:57:41.675Z,2.60
2023-03-23T19:00:43.528Z,3.45
2023-03-23T19:03:45.466Z,2.20
2023-03-23T19:06:47.218Z,2.75
2023-03-23T19:09:48.498Z,2.83
2023-03-23T19:12:50.454Z,3.03
2023-03-23T19:15:52.677Z,2.60
2023-03-23T19:18:54.039Z,2.60
2023-03-23T19:21:55.335Z,6.38
2023-03-23T19:24:57.053Z,5.78
2023-03-23T19:28:49.971Z,4.47
2023-03-23T19:31:22.656Z,4.72
2023-03-23T19:37:25.726Z,4.25
2023-03-23T19:40:50.233Z,3.17
2023-03-23T19:43:48.487Z,3.05
2023-03-23T19:46:49.857Z,4.82
2023-03-23T19:49:51.694Z,2.97
2023-03-23T19:52:53.043Z,2.25
2023-03-23T19:55:54.512Z,3.20
2023-03-23T19:58:55.829Z,4.53
2023-03-23T20:01:57.495Z,3.88
2023-03-23T20:04:58.877Z,3.67
2023-03-23T20:08:00.217Z,2.95
2023-03-23T20:11:03.238Z,2.90
2023-03-23T20:14:04.755Z,2.92
2023-03-23T20:17:09.581Z,3.42
2023-03-23T20:20:11.762Z,4.28
2023-03-23T20:23:13.067Z,4.13
2023-03-23T20:26:19.616Z,3.33
2023-03-23T20:29:20.993Z,2.95
2023-03-23T20:32:22.549Z,3.53
2023-03-23T20:35:23.914Z,2.78
2023-03-23T20:38:25.319Z,3.78
2023-03-23T20:41:26.829Z,3.40
2023-03-23T20:44:31.072Z,4.05
2023-03-23T20:47:32.382Z,3.63
2023-03-23T20:50:34.011Z,2.67
2023-03-23T20:53:35.521Z,3.85
2023-03-23T20:56:39.839Z,4.05
2023-03-23T21:02:42.542Z,3.90
2023-03-23T21:05:43.984Z,3.40
2023-03-23T21:08:45.418Z,3.42
2023-03-23T21:11:46.975Z,3.20
2023-03-23T21:14:48.274Z,3.08
2023-03-23T21:17:49.688Z,3.05
2023-03-23T21:20:51.135Z,3.33
2023-03-23T21:23:53.014Z,3.90
2023-03-23T21:26:55.248Z,2.95
2023-03-23T21:29:59.266Z,2.65
2023-03-23T21:33:00.721Z,3.25
2023-03-23T21:36:02.453Z,2.72
2023-03-23T21:39:05.995Z,3.13
2023-03-23T21:42:07.302Z,2.15
2023-03-23T21:45:09.989Z,2.17
2023-03-23T21:48:12.025Z,2.97
2023-03-23T21:51:14.229Z,2.83
2023-03-23T21:54:15.552Z,2.80
2023-03-23T21:57:17.112Z,3.33
2023-03-23T22:00:18.867Z,3.20
2023-03-23T22:03:22.656Z,3.15
2023-03-23T22:06:26.779Z,2.95
2023-03-23T22:09:28.197Z,3.03
2023-03-23T22:12:29.575Z,2.80
2023-03-23T22:15:30.907Z,2.80
2023-03-23T22:18:33.220Z,2.85
2023-03-23T22:21:34.574Z,3.40
2023-03-23T22:24:35.934Z,4.10
2023-03-23T22:27:37.259Z,3.50
2023-03-23T22:30:38.535Z,2.70
2023-03-23T22:33:40.008Z,2.92
2023-03-23T22:36:41.611Z,2.70
2023-03-23T22:39:42.980Z,2.92
2023-03-23T22:42:44.249Z,4.32
2023-03-23T22:45:45.687Z,4.10
2023-03-23T22:48:47.046Z,3.58
2023-03-23T22:51:48.543Z,4.18
2023-03-23T22:54:49.970Z,3.55
2023-03-23T22:57:51.341Z,3.65
2023-03-23T23:01:00.399Z,4.65
2023-03-23T23:04:02.870Z,3.38
2023-03-23T23:07:12.807Z,3.13
2023-03-23T23:10:14.668Z,3.28
2023-03-23T23:13:16.644Z,3.13
2023-03-23T23:16:18.969Z,2.55
2023-03-23T23:19:20.318Z,3.15
2023-03-23T23:22:21.717Z,2.90
2023-03-23T23:25:23.083Z,2.65
2023-03-23T23:28:24.638Z,2.92
2023-03-23T23:31:28.933Z,2.50
2023-03-23T23:34:30.383Z,2.35
2023-03-23T23:37:31.708Z,2.53
2023-03-23T23:40:35.196Z,2.55
2023-03-23T23:43:36.478Z,2.35
2023-03-23T23:46:37.800Z,2.72
2023-03-23T23:49:40.082Z,2.78
2023-03-23T23:52:42.596Z,3.03
2023-03-23T23:55:43.929Z,2.15
2023-03-23T23:58:45.355Z,2.63
